Time;durP1;ratioP1;P1;durP2;ratioP2;P2;SDS_P1;SDS_P2;PMS_P1;PMS_P2;Temp;Humidity;BMP_temperature;BMP_pressure;BME280_temperature;BME280_humidity;BME280_pressure;Samples;Min_cycle;Max_cycle;Signal;HPM_P1;HPM_P2
2024/03/24 00:01:54;;;;;;;7.07;3.17;;;;;;;8.41;58.95;100455.50;4971478;28;108857;-80
2024/03/24 00:04:21;;;;;;;7.13;3.42;;;;;;;8.45;59.08;100457.13;4973894;28;123961;-79
2024/03/24 00:06:48;;;;;;;5.00;3.35;;;;;;;8.46;59.00;100445.66;4978818;28;124816;-80
2024/03/24 00:09:16;;;;;;;8.70;3.30;;;;;;;8.48;58.98;100457.00;4985022;28;109283;-79
2024/03/24 00:11:44;;;;;;;10.48;3.33;;;;;;;8.50;59.00;100449.88;4980607;28;109741;-80
2024/03/24 00:14:12;;;;;;;7.93;3.53;;;;;;;8.53;59.00;100444.44;4989004;28;124198;-80
2024/03/24 00:16:39;;;;;;;7.05;3.65;;;;;;;8.55;59.10;100446.09;4966604;28;123013;-79
2024/03/24 00:19:08;;;;;;;7.05;3.40;;;;;;;8.58;58.97;100432.75;4975783;28;109302;-79
2024/03/24 00:21:36;;;;;;;6.35;3.35;;;;;;;8.61;58.79;100436.19;4975559;28;109716;-79
2024/03/24 00:24:05;;;;;;;9.35;3.30;;;;;;;8.63;59.08;100429.94;4978514;28;124501;-80
2024/03/24 00:26:55;;;;;;;6.88;3.33;;;;;;;8.64;59.25;100426.34;4997419;28;124018;-79
2024/03/24 00:29:24;;;;;;;6.90;3.40;;;;;;;8.67;59.24;100420.94;4986338;28;109114;-80
2024/03/24 00:32:03;;;;;;;7.32;3.25;;;;;;;8.70;58.93;100420.81;4986025;28;109013;-80
2024/03/24 00:34:31;;;;;;;5.65;3.17;;;;;;;8.72;58.86;100418.09;4978861;28;123997;-80
2024/03/24 00:36:58;;;;;;;9.20;3.53;;;;;;;8.75;59.14;100418.81;4977079;28;124070;-80
2024/03/24 00:39:25;;;;;;;7.30;3.40;;;;;;;8.77;59.21;100416.97;4980775;28;109272;-79
2024/03/24 00:41:53;;;;;;;7.38;3.25;;;;;;;8.80;59.00;100431.84;4977971;28;107345;-80
2024/03/24 00:44:28;;;;;;;7.82;3.42;;;;;;;8.83;59.27;100420.28;4993564;28;124140;-79
2024/03/24 00:46:55;;;;;;;6.22;3.05;;;;;;;8.84;58.96;100422.00;4978831;28;123419;-80
2024/03/24 00:49:23;;;;;;;7.38;3.22;;;;;;;8.88;59.08;100423.56;4970598;28;108797;-80
2024/03/24 00:51:50;;;;;;;7.50;3.20;;;;;;;8.91;59.49;100420.78;4995151;28;109537;-80
2024/03/24 00:54:21;;;;;;;5.43;2.75;;;;;;;8.95;59.31;100419.72;4971237;28;124966;-80
2024/03/24 00:57:06;;;;;;;6.80;3.13;;;;;;;8.98;59.42;100419.56;4969523;28;122757;-80
2024/03/24 01:00:16;;;;;;;6.65;2.75;;;;;;;9.01;59.11;100408.88;5002574;28;109164;-80
2024/03/24 01:04:00;;;;;;;7.13;3.10;;;;;;;9.01;59.00;100398.31;5015585;28;109690;-80
2024/03/24 01:12:02;;;;;;;6.68;2.83;;;;;;;8.99;59.06;100394.88;5014256;28;124733;-80
2024/03/24 01:15:54;;;;;;;8.18;3.17;;;;;;;8.98;59.16;100382.59;4919860;28;111035;-80
2024/03/24 01:23:51;;;;;;;6.03;3.10;;;;;;;8.94;59.27;100359.91;4919618;28;124152;-80
2024/03/24 01:35:19;;;;;;;8.23;3.13;;;;;;;8.91;59.23;100338.91;4844973;29;109969;-80
2024/03/24 01:38:59;;;;;;;7.82;3.03;;;;;;;8.92;59.50;100336.19;5002697;28;97242;-63
2024/03/24 01:41:27;;;;;;;8.25;3.10;;;;;;;8.94;59.71;100330.84;4976751;28;124369;-64
2024/03/24 01:43:55;;;;;;;9.30;3.40;;;;;;;8.97;59.75;100328.06;4972034;28;108653;-63
2024/03/24 01:46:23;;;;;;;7.60;3.30;;;;;;;8.99;59.76;100320.94;4981411;28;108972;-63
2024/03/24 01:48:49;;;;;;;8.50;3.38;;;;;;;9.02;59.87;100326.06;4977380;28;124061;-63
2024/03/24 01:51:18;;;;;;;7.93;3.35;;;;;;;9.06;59.61;100316.19;4969434;28;124028;-63
2024/03/24 01:53:46;;;;;;;9.05;3.50;;;;;;;9.06;59.43;100321.47;4974269;28;110313;-64
2024/03/24 01:56:14;;;;;;;7.68;3.72;;;;;;;9.07;59.85;100308.22;4970229;28;108100;-63
2024/03/24 01:58:40;;;;;;;8.18;3.58;;;;;;;9.10;59.66;100308.06;4989348;28;124027;-63
2024/03/24 02:01:07;;;;;;;9.00;4.10;;;;;;;9.11;59.89;100306.28;4971376;28;123127;-62
2024/03/24 02:03:38;;;;;;;8.23;4.10;;;;;;;9.12;59.75;100316.78;4978678;28;114239;-63
2024/03/24 02:06:04;;;;;;;5.95;3.88;;;;;;;9.13;59.60;100301.78;4985152;28;114991;-62
2024/03/24 02:08:32;;;;;;;8.20;3.90;;;;;;;9.14;59.95;100303.50;4988793;28;124136;-62
2024/03/24 02:10:59;;;;;;;9.63;4.80;;;;;;;9.14;59.85;100293.78;4990635;28;123903;-63
2024/03/24 02:13:26;;;;;;;10.13;4.72;;;;;;;9.15;59.85;100284.94;4983396;28;115489;-63
2024/03/24 02:15:53;;;;;;;11.40;4.93;;;;;;;9.15;59.58;100279.66;4987152;28;114899;-63
2024/03/24 02:18:21;;;;;;;10.88;4.70;;;;;;;9.17;59.91;100274.28;4986811;28;124204;-68
2024/03/24 02:20:48;;;;;;;12.70;5.10;;;;;;;9.16;59.81;100265.50;4969108;28;124118;-63
2024/03/24 02:23:16;;;;;;;8.65;5.00;;;;;;;9.18;59.71;100261.94;4976688;28;114711;-63
2024/03/24 02:25:42;;;;;;;10.02;4.97;;;;;;;9.17;59.72;100258.44;4982043;28;113962;-63
2024/03/24 02:28:09;;;;;;;12.32;6.03;;;;;;;9.18;59.59;100256.66;4981734;28;124605;-63
2024/03/24 02:30:36;;;;;;;11.00;5.32;;;;;;;9.18;60.05;100248.75;4962299;28;123137;-63
2024/03/24 02:33:02;;;;;;;12.23;5.45;;;;;;;9.19;60.13;100250.44;4974981;28;114298;-63
2024/03/24 02:35:29;;;;;;;8.23;4.70;;;;;;;9.19;59.74;100242.50;4982667;28;113999;-63
2024/03/24 02:37:56;;;;;;;9.13;5.22;;;;;;;9.19;59.76;100247.78;4977805;28;124145;-63
2024/03/24 02:40:22;;;;;;;8.00;5.15;;;;;;;9.19;59.72;100247.78;4989436;28;124402;-63
2024/03/24 02:42:48;;;;;;;10.05;5.80;;;;;;;9.20;59.81;100242.44;4983483;28;114151;-63
2024/03/24 02:45:15;;;;;;;9.90;5.60;;;;;;;9.20;60.25;100244.22;4987028;28;114301;-63
2024/03/24 02:47:42;;;;;;;9.48;5.65;;;;;;;9.22;60.16;100242.38;4980322;28;124266;-64
2024/03/24 02:50:09;;;;;;;11.13;5.55;;;;;;;9.23;60.15;100234.38;4961184;28;124579;-63
2024/03/24 02:52:35;;;;;;;11.85;5.63;;;;;;;9.25;60.18;100231.63;4980461;28;114639;-63
2024/03/24 02:55:02;;;;;;;12.55;5.32;;;;;;;9.27;60.02;100229.78;4993263;28;114007;-63
2024/03/24 02:57:33;;;;;;;11.23;5.70;;;;;;;9.27;60.22;100224.50;4985848;28;124361;-63
2024/03/24 03:00:00;;;;;;;9.25;5.20;;;;;;;9.27;60.09;100221.88;4960267;28;122876;-63
2024/03/24 03:02:27;;;;;;;10.50;5.32;;;;;;;9.26;60.26;100228.91;4964888;28;115609;-63
2024/03/24 03:04:53;;;;;;;7.70;4.68;;;;;;;9.28;59.98;100215.63;4972371;28;115884;-63
2024/03/24 03:07:19;;;;;;;11.32;4.65;;;;;;;9.30;60.14;100232.25;4982833;28;124548;-63
2024/03/24 03:09:46;;;;;;;7.50;4.97;;;;;;;9.30;60.16;100232.25;4980005;28;123971;-63
2024/03/24 03:12:12;;;;;;;11.23;5.32;;;;;;;9.31;60.20;100215.50;4980740;28;114906;-63
2024/03/24 03:14:38;;;;;;;9.70;5.40;;;;;;;9.31;60.53;100216.34;4983794;28;113909;-63
2024/03/24 03:17:06;;;;;;;11.20;4.78;;;;;;;9.33;60.45;100208.34;4981626;28;124660;-63
2024/03/24 03:19:33;;;;;;;10.10;5.25;;;;;;;9.34;60.46;100215.31;4969888;28;123104;-63
2024/03/24 03:21:59;;;;;;;12.27;5.70;;;;;;;9.34;60.52;100210.03;4983318;28;114275;-64
2024/03/24 03:24:26;;;;;;;12.60;5.50;;;;;;;9.35;60.73;100211.75;4981889;28;114374;-63
2024/03/24 03:26:52;;;;;;;9.63;4.97;;;;;;;9.35;60.37;100212.59;4979701;28;124066;-63
2024/03/24 03:29:18;;;;;;;11.00;5.50;;;;;;;9.36;60.28;100202.88;4983442;28;123798;-63
2024/03/24 03:31:44;;;;;;;11.45;5.45;;;;;;;9.36;60.44;100187.03;4959681;28;114317;-63
2024/03/24 03:34:13;;;;;;;11.45;5.40;;;;;;;9.36;60.40;100184.38;4979209;28;114399;-64
2024/03/24 03:36:39;;;;;;;11.23;5.45;;;;;;;9.38;60.58;100194.88;4964236;28;124674;-63
2024/03/24 03:39:05;;;;;;;7.30;4.93;;;;;;;9.39;60.39;100192.16;4978670;28;124585;-63
2024/03/24 03:41:32;;;;;;;10.82;5.03;;;;;;;9.40;60.76;100191.25;4982852;28;114266;-63
2024/03/24 03:43:58;;;;;;;10.23;5.05;;;;;;;9.42;60.96;100192.03;4978594;28;113752;-63
2024/03/24 03:46:25;;;;;;;10.75;4.68;;;;;;;9.42;60.51;100181.44;4978249;28;124582;-63
2024/03/24 03:48:53;;;;;;;9.00;4.57;;;;;;;9.44;60.59;100182.22;4981205;28;123910;-63
2024/03/24 03:51:29;;;;;;;10.63;5.30;;;;;;;9.45;60.62;100180.41;4979912;28;116051;-63
2024/03/24 03:53:58;;;;;;;8.52;4.28;;;;;;;9.47;60.73;100184.69;4967593;28;115095;-63
2024/03/24 03:56:25;;;;;;;10.75;4.85;;;;;;;9.49;60.85;100187.25;4987075;28;124018;-63
2024/03/24 03:58:52;;;;;;;13.45;4.90;;;;;;;9.49;60.63;100188.13;4979492;28;124456;-63
2024/03/24 04:01:18;;;;;;;9.88;4.65;;;;;;;9.50;60.98;100178.41;4978989;28;114093;-63
2024/03/24 04:03:44;;;;;;;9.15;4.50;;;;;;;9.50;60.75;100184.53;4975048;28;114098;-63
2024/03/24 04:06:11;;;;;;;10.50;4.80;;;;;;;9.50;60.72;100187.19;4973353;28;124373;-63
2024/03/24 04:08:39;;;;;;;12.38;4.43;;;;;;;9.50;60.59;100184.53;4977233;28;124207;-63
2024/03/24 04:11:09;;;;;;;13.13;4.63;;;;;;;9.51;60.77;100186.28;4975096;28;114305;-63
2024/03/24 04:13:35;;;;;;;12.48;4.78;;;;;;;9.54;60.94;100186.09;4973870;28;113959;-63
2024/03/24 04:16:05;;;;;;;9.32;3.90;;;;;;;9.54;60.79;100180.81;4974112;28;124670;-63
2024/03/24 04:18:32;;;;;;;10.05;4.53;;;;;;;9.56;60.98;100175.44;4983260;28;125001;-63
2024/03/24 04:21:04;;;;;;;10.10;4.15;;;;;;;9.57;61.14;100168.34;4969118;28;113758;-62
2024/03/24 04:23:30;;;;;;;10.55;4.50;;;;;;;9.59;60.95;100166.50;4979685;28;114054;-63
2024/03/24 04:25:57;;;;;;;10.07;4.32;;;;;;;9.59;60.72;100171.78;4978774;28;124841;-63
2024/03/24 04:28:23;;;;;;;12.30;4.78;;;;;;;9.58;60.91;100165.63;4982128;28;124044;-63
2024/03/24 04:30:49;;;;;;;11.10;4.97;;;;;;;9.57;60.76;100169.22;4969323;28;114200;-63
2024/03/24 04:33:16;;;;;;;9.52;4.70;;;;;;;9.58;61.11;100180.66;4972754;28;114234;-63
2024/03/24 04:35:42;;;;;;;8.60;4.60;;;;;;;9.56;60.79;100167.50;4959605;28;124274;-64
2024/03/24 04:38:09;;;;;;;13.98;4.90;;;;;;;9.55;60.91;100171.94;4976580;28;123943;-63
2024/03/24 04:40:35;;;;;;;11.68;4.93;;;;;;;9.55;61.04;100153.44;4978162;28;115158;-63
2024/03/24 04:43:02;;;;;;;10.25;4.57;;;;;;;9.57;60.87;100152.50;4959603;28;114183;-63
2024/03/24 04:45:28;;;;;;;11.43;4.63;;;;;;;9.55;60.91;100145.53;4954241;28;124022;-63
2024/03/24 04:47:55;;;;;;;8.80;4.30;;;;;;;9.55;60.84;100144.66;4967471;28;123130;-63
2024/03/24 04:50:23;;;;;;;11.70;4.15;;;;;;;9.54;60.91;100156.16;4970038;28;113378;-63
2024/03/24 04:52:49;;;;;;;9.82;5.20;;;;;;;9.52;60.98;100161.53;4972561;28;113785;-63
2024/03/24 04:55:16;;;;;;;10.88;5.25;;;;;;;9.53;60.98;100199.38;4981097;28;124177;-63
2024/03/24 04:57:42;;;;;;;12.40;4.93;;;;;;;9.53;60.86;100242.56;4977139;28;123770;-63
2024/03/24 05:00:10;;;;;;;5.45;2.15;;;;;;;9.47;60.26;100245.47;4980472;28;114583;-62
2024/03/24 05:02:36;;;;;;;4.05;1.75;;;;;;;9.31;59.63;100241.91;4975141;28;113992;-63
2024/03/24 05:05:03;;;;;;;5.10;1.70;;;;;;;9.13;59.71;100244.50;4960552;28;124426;-62
2024/03/24 05:07:30;;;;;;;4.22;1.50;;;;;;;8.96;59.75;100234.75;4969639;28;124022;-65
2024/03/24 05:09:56;;;;;;;5.68;1.60;;;;;;;8.83;59.58;100230.16;4982018;28;114538;-62
2024/03/24 05:12:23;;;;;;;4.97;1.50;;;;;;;8.71;59.68;100231.59;4980088;28;117277;-63
2024/03/24 05:14:49;;;;;;;3.45;1.20;;;;;;;8.60;59.75;100226.81;4975519;28;124029;-63
2024/03/24 05:17:17;;;;;;;3.55;1.15;;;;;;;8.51;59.40;100219.31;4977511;28;123923;-62
2024/03/24 05:19:44;;;;;;;2.90;0.80;;;;;;;8.42;59.67;100211.81;4969594;28;112157;-62
2024/03/24 05:22:10;;;;;;;2.17;0.93;;;;;;;8.36;59.84;100215.56;4979094;28;114268;-63
2024/03/24 05:24:36;;;;;;;3.45;0.85;;;;;;;8.30;60.10;100210.59;4971885;28;123999;-62
2024/03/24 05:27:05;;;;;;;2.58;0.70;;;;;;;8.26;59.90;100214.28;4982497;28;124022;-62
2024/03/24 05:29:32;;;;;;;2.17;0.98;;;;;;;8.25;59.77;100231.91;4975378;28;115187;-63
2024/03/24 05:32:02;;;;;;;3.63;0.90;;;;;;;8.24;60.15;100231.97;4986560;28;115122;-63
2024/03/24 05:34:28;;;;;;;1.15;0.77;;;;;;;8.25;60.21;100236.31;4973390;28;124104;-63
2024/03/24 05:36:56;;;;;;;1.98;0.80;;;;;;;8.24;60.21;100235.47;4960862;28;123981;-63
2024/03/24 05:39:22;;;;;;;5.88;1.05;;;;;;;8.24;59.97;100245.16;4975415;28;114345;-63
2024/03/24 05:41:49;;;;;;;2.25;1.23;;;;;;;8.22;60.21;100245.22;4981477;28;113865;-63
2024/03/24 05:44:16;;;;;;;1.88;0.90;;;;;;;8.20;60.02;100241.81;4977298;28;124020;-63
2024/03/24 05:46:43;;;;;;;2.00;0.80;;;;;;;8.19;60.04;100240.06;4971894;28;123972;-63
2024/03/24 05:49:10;;;;;;;3.00;0.82;;;;;;;8.19;59.96;100240.06;4979339;28;114003;-63
2024/03/24 05:51:39;;;;;;;2.50;1.08;;;;;;;8.19;59.94;100245.34;4962953;28;113986;-63
2024/03/24 05:54:06;;;;;;;3.55;0.90;;;;;;;8.19;59.85;100246.22;4974942;28;124712;-64
2024/03/24 05:56:33;;;;;;;1.30;0.65;;;;;;;8.20;59.86;100244.44;4985572;28;124163;-63
2024/03/24 05:58:59;;;;;;;1.02;0.70;;;;;;;8.21;59.97;100243.50;4978323;28;115227;-63
2024/03/24 06:01:26;;;;;;;3.58;1.10;;;;;;;8.22;60.07;100234.69;4981801;28;114269;-63
2024/03/24 06:03:53;;;;;;;3.85;0.80;;;;;;;8.25;60.13;100233.66;4981872;28;123984;-62
2024/03/24 06:06:19;;;;;;;2.25;1.00;;;;;;;8.27;60.26;100210.72;4985263;28;124323;-62
2024/03/24 06:08:45;;;;;;;1.77;0.80;;;;;;;8.30;60.59;100221.13;4964535;28;114128;-62
2024/03/24 06:11:12;;;;;;;3.20;1.08;;;;;;;8.33;60.42;100242.97;4987779;28;114987;-62
2024/03/24 06:13:38;;;;;;;2.65;1.00;;;;;;;8.36;60.20;100248.13;4977726;28;124139;-62
2024/03/24 06:16:07;;;;;;;6.93;1.20;;;;;;;8.41;60.34;100247.03;4986386;28;123962;-62
2024/03/24 06:18:33;;;;;;;4.22;0.93;;;;;;;8.45;60.43;100256.56;4983698;28;115064;-62
2024/03/24 06:21:03;;;;;;;1.40;0.90;;;;;;;8.48;60.47;100256.44;4974585;28;115019;-62
2024/03/24 06:23:29;;;;;;;3.65;1.10;;;;;;;8.52;60.34;100252.72;4972162;28;124231;-62
2024/03/24 06:25:56;;;;;;;3.72;0.90;;;;;;;8.55;60.14;100252.56;4978728;28;124152;-62
2024/03/24 06:28:22;;;;;;;2.05;1.00;;;;;;;8.60;60.58;100263.75;4990290;28;114435;-62
2024/03/24 06:30:49;;;;;;;3.85;1.20;;;;;;;8.65;60.45;100263.56;4979558;28;113876;-62
2024/03/24 06:33:15;;;;;;;4.50;1.27;;;;;;;8.69;60.25;100263.34;4972238;28;124680;-62
2024/03/24 06:35:44;;;;;;;1.98;1.00;;;;;;;8.74;60.17;100269.28;4979771;28;124008;-62
2024/03/24 06:38:11;;;;;;;1.80;1.23;;;;;;;8.80;60.22;100267.25;4976097;28;114368;-62
2024/03/24 06:40:37;;;;;;;1.83;1.40;;;;;;;8.83;60.36;100272.41;4968926;28;114165;-62
2024/03/24 06:43:03;;;;;;;2.40;1.40;;;;;;;8.87;60.19;100263.41;4977351;28;124047;-62
2024/03/24 06:45:31;;;;;;;2.80;1.05;;;;;;;8.90;60.50;100258.81;4980099;28;124421;-62
2024/03/24 06:48:00;;;;;;;3.75;1.10;;;;;;;8.95;60.54;100261.28;4980741;28;114022;-63
2024/03/24 06:50:27;;;;;;;2.80;1.23;;;;;;;8.99;60.48;100265.47;4977464;28;114204;-62
2024/03/24 06:52:55;;;;;;;2.70;1.58;;;;;;;9.03;60.50;100269.66;4981456;28;124025;-62
2024/03/24 06:55:24;;;;;;;3.13;1.30;;;;;;;9.07;60.28;100265.94;4987119;28;123851;-62
2024/03/24 06:57:50;;;;;;;2.53;1.20;;;;;;;9.11;60.42;100269.31;4983224;28;114308;-62
2024/03/24 07:00:17;;;;;;;5.20;1.30;;;;;;;9.15;60.32;100266.44;4980649;28;114387;-64
2024/03/24 07:02:48;;;;;;;3.47;1.25;;;;;;;9.19;60.50;100263.63;4960125;28;123669;-62
2024/03/24 07:05:15;;;;;;;2.70;1.50;;;;;;;9.24;60.61;100266.94;4984908;28;123946;-62
2024/03/24 07:07:42;;;;;;;2.50;1.33;;;;;;;9.29;60.24;100264.91;4965917;28;115445;-66
2024/03/24 07:10:09;;;;;;;5.70;1.70;;;;;;;9.34;60.38;100268.16;4972957;28;114921;-62
2024/03/24 07:12:36;;;;;;;4.50;1.60;;;;;;;9.39;60.42;100255.59;4975925;28;124662;-62
2024/03/24 07:15:03;;;;;;;3.95;1.60;;;;;;;9.45;60.64;100254.44;4978904;28;123908;-62
2024/03/24 07:17:30;;;;;;;5.80;1.92;;;;;;;9.50;60.64;100263.84;4985482;28;114517;-62
2024/03/24 07:19:56;;;;;;;4.22;1.60;;;;;;;9.60;60.68;100258.09;4964562;28;113992;-62
2024/03/24 07:22:23;;;;;;;4.93;1.77;;;;;;;9.68;60.58;100250.63;4975721;28;124152;-62
2024/03/24 07:24:50;;;;;;;4.80;1.95;;;;;;;9.77;60.54;100249.31;4982538;28;124586;-63
2024/03/24 07:27:17;;;;;;;4.50;2.25;;;;;;;9.84;60.90;100256.84;4976666;28;114471;-63
2024/03/24 07:29:44;;;;;;;6.57;2.13;;;;;;;9.94;60.87;100263.38;4986539;28;114381;-63
2024/03/24 07:32:10;;;;;;;6.35;2.63;;;;;;;10.05;60.83;100254.03;4970278;28;122973;-63
2024/03/24 07:34:38;;;;;;;8.60;2.10;;;;;;;10.16;60.61;100267.53;4972468;28;124445;-62
2024/03/24 07:37:05;;;;;;;8.40;2.45;;;;;;;10.27;60.79;100265.19;4973888;28;114691;-63
2024/03/24 07:39:33;;;;;;;6.10;2.35;;;;;;;10.38;60.94;100266.44;4980005;28;113435;-63
2024/03/24 07:41:59;;;;;;;10.05;2.75;;;;;;;10.49;60.73;100269.34;4959734;28;123698;-63
2024/03/24 07:44:26;;;;;;;5.70;2.53;;;;;;;10.60;60.79;100266.97;4972678;28;124642;-63
2024/03/24 07:46:52;;;;;;;8.68;2.60;;;;;;;10.68;60.79;100262.13;4976504;28;114317;-63
2024/03/24 07:49:19;;;;;;;6.38;2.50;;;;;;;10.80;60.76;100262.41;4984227;28;113847;-63
2024/03/24 07:51:45;;;;;;;8.25;2.70;;;;;;;10.90;60.85;100274.19;4978082;28;124003;-63
2024/03/24 07:54:12;;;;;;;6.50;2.40;;;;;;;10.99;60.92;100276.31;4972224;28;124041;-63
2024/03/24 07:56:38;;;;;;;7.45;2.45;;;;;;;11.07;60.56;100271.44;4970974;28;113976;-63
2024/03/24 07:59:05;;;;;;;12.15;2.60;;;;;;;11.16;60.83;100277.19;4983807;28;115204;-63
2024/03/24 08:01:31;;;;;;;10.27;2.50;;;;;;;11.23;60.70;100275.91;4980479;28;125186;-62
2024/03/24 08:03:58;;;;;;;8.52;2.55;;;;;;;11.30;60.49;100282.53;4976975;28;124185;-63
2024/03/24 08:06:24;;;;;;;6.47;2.33;;;;;;;11.37;60.55;100278.59;4982388;28;114736;-63
2024/03/24 08:08:50;;;;;;;10.23;2.78;;;;;;;11.43;60.32;100288.88;4989780;28;113934;-63
2024/03/24 08:11:17;;;;;;;11.52;2.70;;;;;;;11.49;60.46;100285.84;4972524;28;123890;-63
2024/03/24 08:13:43;;;;;;;7.38;2.00;;;;;;;11.54;60.30;100285.56;4973000;28;125414;-63
2024/03/24 08:16:09;;;;;;;8.85;2.55;;;;;;;11.58;60.16;100294.22;4982505;28;114561;-63
2024/03/24 08:18:37;;;;;;;5.13;1.70;;;;;;;11.61;60.05;100294.03;4984023;28;113859;-63
2024/03/24 08:21:04;;;;;;;5.95;2.30;;;;;;;11.63;60.11;100285.03;4983957;28;124744;-62
2024/03/24 08:24:23;;;;;;;4.90;2.10;;;;;;;11.65;59.91;100292.91;4983812;28;123974;-63
2024/03/24 08:26:49;;;;;;;7.53;2.13;;;;;;;11.67;59.79;100298.97;4978954;28;114336;-63
2024/03/24 08:29:17;;;;;;;10.27;2.28;;;;;;;11.73;59.94;100301.25;4980297;28;114035;-64
2024/03/24 08:31:44;;;;;;;9.38;2.30;;;;;;;11.83;60.00;100301.59;4969586;28;122766;-63
2024/03/24 08:34:10;;;;;;;9.57;2.45;;;;;;;11.96;59.85;100291.13;4982612;28;123963;-63
2024/03/24 08:36:37;;;;;;;7.82;2.20;;;;;;;12.06;59.77;100292.28;4982401;28;114542;-63
2024/03/24 08:39:03;;;;;;;6.72;2.42;;;;;;;12.17;59.94;100284.53;4964540;28;114013;-63
2024/03/24 08:41:31;;;;;;;9.05;2.28;;;;;;;12.23;59.71;100300.09;4993703;28;98371;-63
2024/03/24 08:43:57;;;;;;;10.25;2.28;;;;;;;12.25;59.30;100303.50;4989130;28;124378;-63
2024/03/24 08:46:25;;;;;;;5.97;1.83;;;;;;;12.26;59.11;100288.41;4959385;28;114706;-63
2024/03/24 08:48:52;;;;;;;5.88;1.88;;;;;;;12.29;59.16;100293.53;4974736;28;114916;-63
2024/03/24 08:51:18;;;;;;;8.30;2.22;;;;;;;12.37;59.09;100301.88;4982877;28;124855;-63
2024/03/24 08:53:44;;;;;;;4.97;1.73;;;;;;;12.45;59.16;100298.75;4982845;28;124633;-63
2024/03/24 08:56:11;;;;;;;6.88;2.03;;;;;;;12.55;59.19;100289.28;4984964;28;114262;-63
2024/03/24 08:58:37;;;;;;;6.88;1.85;;;;;;;12.62;58.77;100285.31;4983595;28;113801;-63
2024/03/24 09:01:04;;;;;;;9.88;1.90;;;;;;;12.65;58.64;100285.09;4959358;28;123101;-63
2024/03/24 09:03:30;;;;;;;5.55;1.75;;;;;;;12.66;58.52;100296.59;4972380;28;123925;-63
2024/03/24 09:05:56;;;;;;;3.50;1.42;;;;;;;12.70;58.42;100299.91;4963373;28;113321;-63
2024/03/24 09:08:23;;;;;;;3.63;1.70;;;;;;;12.72;58.19;100284.72;4966211;28;113270;-63
2024/03/24 09:10:50;;;;;;;6.97;1.95;;;;;;;12.73;58.09;100299.72;4975083;28;125409;-63
2024/03/24 09:13:16;;;;;;;6.30;1.50;;;;;;;12.77;58.02;100293.25;4975144;28;124084;-63
2024/03/24 09:15:42;;;;;;;6.28;1.60;;;;;;;12.83;58.00;100292.88;4985478;28;114365;-63
2024/03/24 09:18:08;;;;;;;4.65;1.25;;;;;;;12.87;57.95;100288.22;4979628;28;113927;-63
2024/03/24 09:20:35;;;;;;;5.15;1.70;;;;;;;12.90;57.85;100283.53;4975842;28;124037;-63
2024/03/24 09:23:02;;;;;;;5.72;1.77;;;;;;;12.92;57.70;100286.97;4963224;28;124545;-63
2024/03/24 09:25:31;;;;;;;4.53;1.20;;;;;;;12.91;57.45;100289.72;4963339;28;113381;-63
2024/03/24 09:27:58;;;;;;;8.45;1.48;;;;;;;12.88;57.23;100290.75;4982216;28;115055;-63
2024/03/24 09:30:25;;;;;;;11.57;1.98;;;;;;;12.86;57.27;100295.31;4961678;28;123591;-63
2024/03/24 09:32:52;;;;;;;5.95;1.52;;;;;;;12.84;57.26;100306.03;4978875;28;124625;-62
2024/03/24 09:35:18;;;;;;;5.20;1.70;;;;;;;12.83;57.02;100298.19;4983540;28;115257;-63
2024/03/24 09:37:44;;;;;;;9.35;1.92;;;;;;;12.84;57.14;100305.19;4976175;28;114977;-63
2024/03/24 09:40:11;;;;;;;4.82;1.50;;;;;;;12.82;56.93;100297.31;4958035;28;124371;-63
2024/03/24 09:42:38;;;;;;;8.25;1.50;;;;;;;12.79;56.87;100292.22;4984527;28;123862;-63
2024/03/24 09:45:09;;;;;;;6.25;1.50;;;;;;;12.77;56.85;100293.25;4964686;28;113438;-63
2024/03/24 09:47:37;;;;;;;7.00;1.60;;;;;;;12.74;56.81;100307.59;4988091;28;114750;-63
2024/03/24 09:50:05;;;;;;;5.38;1.30;;;;;;;12.72;56.68;100306.00;4978115;28;123938;-63
2024/03/24 09:52:33;;;;;;;5.05;1.30;;;;;;;12.71;56.80;100304.28;4983263;28;123635;-63
2024/03/24 09:55:00;;;;;;;9.68;1.65;;;;;;;12.75;56.93;100308.44;4985152;28;114530;-63
2024/03/24 09:57:35;;;;;;;2.95;1.35;;;;;;;12.80;56.87;100314.31;4979452;28;114027;-63
2024/03/24 10:00:05;;;;;;;8.05;1.45;;;;;;;12.84;56.72;100310.50;4980265;28;124170;-63
2024/03/24 10:02:39;;;;;;;4.55;1.23;;;;;;;12.83;56.56;100295.53;4979374;28;124326;-63
2024/03/24 10:05:06;;;;;;;8.50;1.20;;;;;;;12.83;56.44;100303.50;4981555;28;114126;-63
2024/03/24 10:07:32;;;;;;;6.97;1.48;;;;;;;12.82;56.43;100301.78;4976726;28;114446;-63
2024/03/24 10:09:59;;;;;;;6.40;1.60;;;;;;;12.81;56.37;100326.69;4975861;28;124418;-63
2024/03/24 10:12:25;;;;;;;7.47;1.48;;;;;;;12.80;56.31;100314.31;4976839;28;123963;-63
2024/03/24 10:14:51;;;;;;;4.80;1.55;;;;;;;12.77;56.16;100309.19;4964884;28;114121;-63
2024/03/24 10:17:19;;;;;;;4.43;1.20;;;;;;;12.74;56.16;100301.44;4984175;28;114482;-63
2024/03/24 10:19:48;;;;;;;5.97;1.40;;;;;;;12.70;55.95;100319.38;4985610;28;124769;-63
2024/03/24 10:22:15;;;;;;;3.85;1.23;;;;;;;12.59;55.84;100328.00;4982336;28;123781;-63
2024/03/24 10:24:45;;;;;;;7.50;1.30;;;;;;;12.47;55.78;100355.31;4976640;28;115351;-63
2024/03/24 10:27:12;;;;;;;3.13;0.90;;;;;;;12.37;55.69;100354.16;4967180;28;114822;-64
2024/03/24 10:29:39;;;;;;;3.00;1.00;;;;;;;12.17;55.30;100374.81;4977658;28;123971;-63
2024/03/24 10:32:10;;;;;;;2.78;0.98;;;;;;;11.91;55.33;100378.13;4975748;28;124355;-63
2024/03/24 10:34:36;;;;;;;3.20;0.95;;;;;;;11.64;55.38;100381.38;4980820;28;114171;-63
2024/03/24 10:37:03;;;;;;;3.13;1.13;;;;;;;11.42;55.51;100381.75;4978203;28;114604;-64
2024/03/24 10:39:30;;;;;;;2.47;1.00;;;;;;;11.21;55.68;100381.16;4976526;28;124093;-63
2024/03/24 10:41:59;;;;;;;1.55;0.90;;;;;;;11.04;55.97;100380.28;4983323;28;124369;-64
2024/03/24 10:44:26;;;;;;;2.40;1.08;;;;;;;10.93;56.13;100380.00;4970443;28;113568;-64
2024/03/24 10:46:54;;;;;;;4.25;0.93;;;;;;;10.84;56.32;100380.50;4972557;28;112798;-63
2024/03/24 10:49:26;;;;;;;4.35;1.05;;;;;;;10.78;56.55;100375.53;4974881;28;124611;-63
2024/03/24 10:51:54;;;;;;;3.13;1.10;;;;;;;10.76;56.69;100366.81;4965830;28;123033;-63
2024/03/24 10:54:21;;;;;;;3.33;1.00;;;;;;;10.76;57.04;100374.75;4982490;28;114519;-63
2024/03/24 10:56:48;;;;;;;4.25;1.13;;;;;;;10.79;57.16;100369.28;4966764;28;113970;-63
2024/03/24 10:59:18;;;;;;;4.88;1.00;;;;;;;10.81;57.34;100370.06;4981416;28;124199;-63
2024/03/24 11:01:45;;;;;;;3.63;1.00;;;;;;;10.85;57.38;100367.16;4973164;28;123832;-64
2024/03/24 11:04:13;;;;;;;2.72;0.98;;;;;;;10.91;57.46;100366.84;4971621;28;114368;-64
2024/03/24 11:06:40;;;;;;;3.90;1.25;;;;;;;10.96;57.60;100358.63;4983620;28;113676;-63
2024/03/24 11:09:12;;;;;;;3.22;1.23;;;;;;;11.01;57.66;100364.53;4972302;28;124896;-63
2024/03/24 11:11:39;;;;;;;4.00;1.10;;;;;;;11.09;57.71;100361.47;4985260;28;124434;-63
2024/03/24 11:14:09;;;;;;;5.38;1.17;;;;;;;11.19;57.94;100364.44;4975821;28;115168;-62
2024/03/24 11:16:36;;;;;;;4.65;1.33;;;;;;;11.31;58.03;100374.38;4972983;28;115821;-63
2024/03/24 11:19:08;;;;;;;3.65;1.10;;;;;;;11.42;58.12;100366.69;4979144;28;124385;-63
2024/03/24 11:21:39;;;;;;;1.40;0.85;;;;;;;11.50;57.88;100375.06;4966248;28;123970;-63
2024/03/24 11:24:23;;;;;;;4.60;1.27;;;;;;;11.55;57.70;100371.31;4960992;28;113925;-63
2024/03/24 11:26:50;;;;;;;1.08;0.80;;;;;;;11.64;57.93;100370.75;4977387;28;113853;-62
2024/03/24 11:29:45;;;;;;;5.40;1.05;;;;;;;11.73;57.90;100364.94;4984449;28;124068;-63
2024/03/24 11:32:12;;;;;;;6.25;1.10;;;;;;;11.79;57.70;100359.31;4988154;28;124761;-67
2024/03/24 11:34:48;;;;;;;3.15;1.20;;;;;;;11.86;57.86;100355.31;4977638;28;114884;-62
2024/03/24 11:37:16;;;;;;;3.72;1.02;;;;;;;12.00;58.02;100356.38;4984682;28;114844;-63
2024/03/24 11:39:43;;;;;;;5.75;1.10;;;;;;;12.13;57.98;100370.63;4966007;28;123132;-63
2024/03/24 11:42:14;;;;;;;3.42;1.15;;;;;;;12.22;57.86;100362.13;4976769;28;125246;-63
2024/03/24 11:44:43;;;;;;;8.73;1.30;;;;;;;12.26;57.63;100352.13;4985515;28;114292;-63
2024/03/24 11:47:10;;;;;;;3.55;1.00;;;;;;;12.27;57.41;100354.72;4979607;28;114216;-63
2024/03/24 11:49:36;;;;;;;4.22;1.20;;;;;;;12.27;57.47;100357.38;4973780;28;124207;-63